sensor_id;sensor_type;location;lat;lon;timestamp;temperature;humidity
8856;DHT22;4464;50.882;4.730;2023-08-31T00:00:52;11.70;99.90
8856;DHT22;4464;50.882;4.730;2023-08-31T00:03:20;11.70;99.90
8856;DHT22;4464;50.882;4.730;2023-08-31T00:05:46;11.70;99.90
8856;DHT22;4464;50.882;4.730;2023-08-31T00:08:12;11.60;99.90
8856;DHT22;4464;50.882;4.730;2023-08-31T00:10:38;11.60;99.90
8856;DHT22;4464;50.882;4.730;2023-08-31T00:13:04;11.60;99.90
8856;DHT22;4464;50.882;4.730;2023-08-31T00:15:32;11.50;99.90
8856;DHT22;4464;50.882;4.730;2023-08-31T00:18:02;11.50;99.90
8856;DHT22;4464;50.882;4.730;2023-08-31T00:20:31;11.60;99.90
8856;DHT22;4464;50.882;4.730;2023-08-31T00:23:00;11.60;99.90
8856;DHT22;4464;50.882;4.730;2023-08-31T00:25:28;11.60;99.90
8856;DHT22;4464;50.882;4.730;2023-08-31T00:27:54;11.50;99.90
8856;DHT22;4464;50.882;4.730;2023-08-31T00:30:23;11.50;99.90
8856;DHT22;4464;50.882;4.730;2023-08-31T00:32:53;11.50;99.90
8856;DHT22;4464;50.882;4.730;2023-08-31T00:35:21;11.60;99.90
8856;DHT22;4464;50.882;4.730;2023-08-31T00:37:49;11.50;99.90
8856;DHT22;4464;50.882;4.730;2023-08-31T00:40:16;11.60;99.90
8856;DHT22;4464;50.882;4.730;2023-08-31T00:42:42;11.60;99.90
8856;DHT22;4464;50.882;4.730;2023-08-31T00:45:10;11.60;99.90
8856;DHT22;4464;50.882;4.730;2023-08-31T00:47:36;11.50;99.90
8856;DHT22;4464;50.882;4.730;2023-08-31T00:50:07;11.60;99.90
8856;DHT22;4464;50.882;4.730;2023-08-31T00:52:34;11.60;99.90
8856;DHT22;4464;50.882;4.730;2023-08-31T00:55:02;11.60;99.90
8856;DHT22;4464;50.882;4.730;2023-08-31T00:57:32;11.60;99.90
8856;DHT22;4464;50.882;4.730;2023-08-31T01:00:01;11.60;99.90
8856;DHT22;4464;50.882;4.730;2023-08-31T01:03:05;11.60;99.90
8856;DHT22;4464;50.882;4.730;2023-08-31T01:06:05;11.60;99.90
8856;DHT22;4464;50.882;4.730;2023-08-31T01:08:47;11.60;99.90
8856;DHT22;4464;50.882;4.730;2023-08-31T01:14:16;11.60;99.90
8856;DHT22;4464;50.882;4.730;2023-08-31T01:16:48;11.60;99.90
8856;DHT22;4464;50.882;4.730;2023-08-31T01:22:07;11.50;99.90
8856;DHT22;4464;50.882;4.730;2023-08-31T01:24:37;11.60;99.90
8856;DHT22;4464;50.882;4.730;2023-08-31T01:27:04;11.50;99.90
8856;DHT22;4464;50.882;4.730;2023-08-31T01:29:32;11.50;99.90
8856;DHT22;4464;50.882;4.730;2023-08-31T01:31:58;11.50;99.90
8856;DHT22;4464;50.882;4.730;2023-08-31T01:34:24;11.40;99.90
8856;DHT22;4464;50.882;4.730;2023-08-31T01:36:57;11.40;99.90
8856;DHT22;4464;50.882;4.730;2023-08-31T01:39:37;11.40;99.90
8856;DHT22;4464;50.882;4.730;2023-08-31T01:42:08;11.40;99.90
8856;DHT22;4464;50.882;4.730;2023-08-31T01:44:36;11.40;99.90
8856;DHT22;4464;50.882;4.730;2023-08-31T01:47:06;11.50;99.90
8856;DHT22;4464;50.882;4.730;2023-08-31T01:49:38;11.50;99.90
8856;DHT22;4464;50.882;4.730;2023-08-31T01:52:04;11.50;99.90
8856;DHT22;4464;50.882;4.730;2023-08-31T01:54:33;11.50;99.90
8856;DHT22;4464;50.882;4.730;2023-08-31T01:56:59;11.50;99.90
8856;DHT22;4464;50.882;4.730;2023-08-31T01:59:25;11.50;99.90
8856;DHT22;4464;50.882;4.730;2023-08-31T02:01:56;11.40;99.90
8856;DHT22;4464;50.882;4.730;2023-08-31T02:04:24;11.50;99.90
8856;DHT22;4464;50.882;4.730;2023-08-31T02:06:50;11.50;99.90
8856;DHT22;4464;50.882;4.730;2023-08-31T02:09:15;11.50;99.90
8856;DHT22;4464;50.882;4.730;2023-08-31T02:11:41;11.40;99.90
8856;DHT22;4464;50.882;4.730;2023-08-31T02:14:11;11.40;99.90
8856;DHT22;4464;50.882;4.730;2023-08-31T02:16:39;11.40;99.90
8856;DHT22;4464;50.882;4.730;2023-08-31T02:19:05;11.50;99.90
8856;DHT22;4464;50.882;4.730;2023-08-31T02:21:38;11.40;99.90
8856;DHT22;4464;50.882;4.730;2023-08-31T02:24:08;11.50;99.90
8856;DHT22;4464;50.882;4.730;2023-08-31T02:26:35;11.50;99.90
8856;DHT22;4464;50.882;4.730;2023-08-31T02:29:03;11.50;99.90
8856;DHT22;4464;50.882;4.730;2023-08-31T02:31:28;11.50;99.90
8856;DHT22;4464;50.882;4.730;2023-08-31T02:33:57;11.50;99.90
8856;DHT22;4464;50.882;4.730;2023-08-31T02:36:23;11.50;99.90
8856;DHT22;4464;50.882;4.730;2023-08-31T02:38:49;11.50;99.90
8856;DHT22;4464;50.882;4.730;2023-08-31T02:41:20;11.50;99.90
8856;DHT22;4464;50.882;4.730;2023-08-31T02:43:46;11.50;99.90
8856;DHT22;4464;50.882;4.730;2023-08-31T02:46:14;11.50;99.90
8856;DHT22;4464;50.882;4.730;2023-08-31T02:48:40;11.50;99.90
8856;DHT22;4464;50.882;4.730;2023-08-31T02:51:05;11.50;99.90
8856;DHT22;4464;50.882;4.730;2023-08-31T02:53:31;11.50;99.90
8856;DHT22;4464;50.882;4.730;2023-08-31T02:55:57;11.40;99.90
8856;DHT22;4464;50.882;4.730;2023-08-31T02:58:25;11.50;99.90
8856;DHT22;4464;50.882;4.730;2023-08-31T03:00:51;11.50;99.90
8856;DHT22;4464;50.882;4.730;2023-08-31T03:03:21;11.50;99.90
8856;DHT22;4464;50.882;4.730;2023-08-31T03:05:46;11.50;99.90
8856;DHT22;4464;50.882;4.730;2023-08-31T03:08:12;11.50;99.90
8856;DHT22;4464;50.882;4.730;2023-08-31T03:10:39;11.60;99.90
8856;DHT22;4464;50.882;4.730;2023-08-31T03:13:07;11.60;99.90
8856;DHT22;4464;50.882;4.730;2023-08-31T03:15:33;11.60;99.90
8856;DHT22;4464;50.882;4.730;2023-08-31T03:18:02;11.50;99.90
8856;DHT22;4464;50.882;4.730;2023-08-31T03:20:30;11.50;99.90
8856;DHT22;4464;50.882;4.730;2023-08-31T03:22:55;11.50;99.90
8856;DHT22;4464;50.882;4.730;2023-08-31T03:25:21;11.50;99.90
8856;DHT22;4464;50.882;4.730;2023-08-31T03:27:54;11.60;99.90
8856;DHT22;4464;50.882;4.730;2023-08-31T03:30:22;11.60;99.90
8856;DHT22;4464;50.882;4.730;2023-08-31T03:32:48;11.50;99.90
8856;DHT22;4464;50.882;4.730;2023-08-31T03:35:16;11.60;99.90
8856;DHT22;4464;50.882;4.730;2023-08-31T03:37:47;11.60;99.90
8856;DHT22;4464;50.882;4.730;2023-08-31T03:40:13;11.70;99.90
8856;DHT22;4464;50.882;4.730;2023-08-31T03:42:41;11.80;99.90
8856;DHT22;4464;50.882;4.730;2023-08-31T03:45:07;11.90;99.90
8856;DHT22;4464;50.882;4.730;2023-08-31T03:47:33;11.90;99.90
8856;DHT22;4464;50.882;4.730;2023-08-31T03:50:01;12.00;99.90
8856;DHT22;4464;50.882;4.730;2023-08-31T03:52:27;12.00;99.90
8856;DHT22;4464;50.882;4.730;2023-08-31T03:54:53;11.90;99.90
8856;DHT22;4464;50.882;4.730;2023-08-31T03:57:18;11.90;99.90
8856;DHT22;4464;50.882;4.730;2023-08-31T03:59:44;11.90;99.90
8856;DHT22;4464;50.882;4.730;2023-08-31T04:02:10;11.90;99.90
8856;DHT22;4464;50.882;4.730;2023-08-31T04:04:35;11.90;99.90
8856;DHT22;4464;50.882;4.730;2023-08-31T04:07:01;11.90;99.90
8856;DHT22;4464;50.882;4.730;2023-08-31T04:09:27;11.90;99.90
8856;DHT22;4464;50.882;4.730;2023-08-31T04:11:55;12.00;99.90
8856;DHT22;4464;50.882;4.730;2023-08-31T04:14:21;12.00;99.90
8856;DHT22;4464;50.882;4.730;2023-08-31T04:16:47;12.00;99.90
8856;DHT22;4464;50.882;4.730;2023-08-31T04:19:16;12.00;99.90
8856;DHT22;4464;50.882;4.730;2023-08-31T04:21:42;12.00;99.90
8856;DHT22;4464;50.882;4.730;2023-08-31T04:24:08;12.10;99.90
8856;DHT22;4464;50.882;4.730;2023-08-31T04:26:34;12.10;99.90
8856;DHT22;4464;50.882;4.730;2023-08-31T04:29:03;12.10;99.90
8856;DHT22;4464;50.882;4.730;2023-08-31T04:31:35;12.00;99.90
8856;DHT22;4464;50.882;4.730;2023-08-31T04:34:03;12.00;99.90
8856;DHT22;4464;50.882;4.730;2023-08-31T04:36:29;11.90;99.90
8856;DHT22;4464;50.882;4.730;2023-08-31T04:38:58;11.80;99.90
8856;DHT22;4464;50.882;4.730;2023-08-31T04:41:24;11.80;99.90
8856;DHT22;4464;50.882;4.730;2023-08-31T04:43:50;11.80;99.90
8856;DHT22;4464;50.882;4.730;2023-08-31T04:46:16;11.70;99.90
8856;DHT22;4464;50.882;4.730;2023-08-31T04:48:41;11.80;99.90
8856;DHT22;4464;50.882;4.730;2023-08-31T04:51:26;11.80;99.90
8856;DHT22;4464;50.882;4.730;2023-08-31T04:53:52;11.80;99.90
8856;DHT22;4464;50.882;4.730;2023-08-31T04:56:19;11.80;99.90
8856;DHT22;4464;50.882;4.730;2023-08-31T04:58:45;11.70;99.90
8856;DHT22;4464;50.882;4.730;2023-08-31T05:01:11;11.80;99.90
8856;DHT22;4464;50.882;4.730;2023-08-31T05:03:39;11.70;99.90
8856;DHT22;4464;50.882;4.730;2023-08-31T05:06:05;11.70;99.90
8856;DHT22;4464;50.882;4.730;2023-08-31T05:08:31;11.70;99.90
8856;DHT22;4464;50.882;4.730;2023-08-31T05:10:56;11.80;99.90
8856;DHT22;4464;50.882;4.730;2023-08-31T05:13:22;11.80;99.90
8856;DHT22;4464;50.882;4.730;2023-08-31T05:15:48;11.80;99.90
8856;DHT22;4464;50.882;4.730;2023-08-31T05:18:13;11.80;99.90
8856;DHT22;4464;50.882;4.730;2023-08-31T05:20:41;11.80;99.90
8856;DHT22;4464;50.882;4.730;2023-08-31T05:23:11;11.80;99.90
8856;DHT22;4464;50.882;4.730;2023-08-31T05:25:47;11.80;99.90
8856;DHT22;4464;50.882;4.730;2023-08-31T05:28:13;11.80;99.90
8856;DHT22;4464;50.882;4.730;2023-08-31T05:30:50;11.80;99.90
8856;DHT22;4464;50.882;4.730;2023-08-31T05:33:17;11.80;99.90
8856;DHT22;4464;50.882;4.730;2023-08-31T05:35:43;11.90;99.90
8856;DHT22;4464;50.882;4.730;2023-08-31T05:38:12;11.90;99.90
8856;DHT22;4464;50.882;4.730;2023-08-31T05:40:39;11.90;99.90
8856;DHT22;4464;50.882;4.730;2023-08-31T05:43:13;11.90;99.90
8856;DHT22;4464;50.882;4.730;2023-08-31T05:45:39;11.90;99.90
8856;DHT22;4464;50.882;4.730;2023-08-31T05:48:05;12.00;99.90
8856;DHT22;4464;50.882;4.730;2023-08-31T05:50:36;12.10;99.90
8856;DHT22;4464;50.882;4.730;2023-08-31T05:53:02;12.10;99.90
8856;DHT22;4464;50.882;4.730;2023-08-31T05:55:28;12.10;99.90
8856;DHT22;4464;50.882;4.730;2023-08-31T05:58:00;12.20;99.90
8856;DHT22;4464;50.882;4.730;2023-08-31T06:00:26;12.20;99.90
8856;DHT22;4464;50.882;4.730;2023-08-31T06:02:54;12.20;99.90
8856;DHT22;4464;50.882;4.730;2023-08-31T06:05:20;12.30;99.90
8856;DHT22;4464;50.882;4.730;2023-08-31T06:07:45;12.30;99.90
8856;DHT22;4464;50.882;4.730;2023-08-31T06:10:14;12.30;99.90
8856;DHT22;4464;50.882;4.730;2023-08-31T06:12:45;12.30;99.90
8856;DHT22;4464;50.882;4.730;2023-08-31T06:15:13;12.40;99.90
8856;DHT22;4464;50.882;4.730;2023-08-31T06:17:41;12.50;99.90
8856;DHT22;4464;50.882;4.730;2023-08-31T06:20:07;12.50;99.90
8856;DHT22;4464;50.882;4.730;2023-08-31T06:22:34;12.60;99.90
8856;DHT22;4464;50.882;4.730;2023-08-31T06:25:02;12.60;99.90
8856;DHT22;4464;50.882;4.730;2023-08-31T06:27:30;12.70;99.90
8856;DHT22;4464;50.882;4.730;2023-08-31T06:30:00;12.70;99.90
8856;DHT22;4464;50.882;4.730;2023-08-31T06:32:26;12.80;99.90
8856;DHT22;4464;50.882;4.730;2023-08-31T06:34:55;12.80;99.90
8856;DHT22;4464;50.882;4.730;2023-08-31T06:37:21;12.90;99.90
8856;DHT22;4464;50.882;4.730;2023-08-31T06:39:51;13.00;99.90
8856;DHT22;4464;50.882;4.730;2023-08-31T06:42:18;13.10;99.90
8856;DHT22;4464;50.882;4.730;2023-08-31T06:44:44;13.10;99.90
8856;DHT22;4464;50.882;4.730;2023-08-31T06:47:10;13.10;99.90
8856;DHT22;4464;50.882;4.730;2023-08-31T06:49:35;13.10;99.90
8856;DHT22;4464;50.882;4.730;2023-08-31T06:52:01;13.20;99.90
8856;DHT22;4464;50.882;4.730;2023-08-31T06:54:28;13.20;99.90
8856;DHT22;4464;50.882;4.730;2023-08-31T06:56:54;13.30;99.90
8856;DHT22;4464;50.882;4.730;2023-08-31T06:59:20;13.40;99.90
8856;DHT22;4464;50.882;4.730;2023-08-31T07:01:50;13.40;99.90
8856;DHT22;4464;50.882;4.730;2023-08-31T07:04:18;13.50;99.90
8856;DHT22;4464;50.882;4.730;2023-08-31T07:06:46;13.60;99.90
8856;DHT22;4464;50.882;4.730;2023-08-31T07:09:14;13.70;99.90
8856;DHT22;4464;50.882;4.730;2023-08-31T07:11:40;13.80;99.90
8856;DHT22;4464;50.882;4.730;2023-08-31T07:14:06;13.90;99.90
8856;DHT22;4464;50.882;4.730;2023-08-31T07:16:32;13.90;99.90
8856;DHT22;4464;50.882;4.730;2023-08-31T07:18:57;14.00;99.90
8856;DHT22;4464;50.882;4.730;2023-08-31T07:21:23;14.00;99.90
8856;DHT22;4464;50.882;4.730;2023-08-31T07:23:49;14.10;99.90
8856;DHT22;4464;50.882;4.730;2023-08-31T07:26:17;14.20;99.90
8856;DHT22;4464;50.882;4.730;2023-08-31T07:28:43;14.30;99.90
8856;DHT22;4464;50.882;4.730;2023-08-31T07:31:09;14.40;99.90
8856;DHT22;4464;50.882;4.730;2023-08-31T07:33:35;14.50;99.90
8856;DHT22;4464;50.882;4.730;2023-08-31T07:36:04;14.60;99.90
8856;DHT22;4464;50.882;4.730;2023-08-31T07:38:33;14.70;99.90
8856;DHT22;4464;50.882;4.730;2023-08-31T07:40:59;14.80;99.90
8856;DHT22;4464;50.882;4.730;2023-08-31T07:43:27;14.90;99.90
8856;DHT22;4464;50.882;4.730;2023-08-31T07:45:53;14.90;99.90
8856;DHT22;4464;50.882;4.730;2023-08-31T07:48:19;15.10;99.90
8856;DHT22;4464;50.882;4.730;2023-08-31T07:50:45;15.20;99.90
8856;DHT22;4464;50.882;4.730;2023-08-31T07:53:11;15.20;99.90
8856;DHT22;4464;50.882;4.730;2023-08-31T07:55:37;15.40;99.90
8856;DHT22;4464;50.882;4.730;2023-08-31T07:58:03;15.40;99.90
8856;DHT22;4464;50.882;4.730;2023-08-31T08:00:28;15.50;99.90
8856;DHT22;4464;50.882;4.730;2023-08-31T08:02:54;15.60;99.90
8856;DHT22;4464;50.882;4.730;2023-08-31T08:05:22;15.80;99.90
8856;DHT22;4464;50.882;4.730;2023-08-31T08:07:50;16.00;99.90
8856;DHT22;4464;50.882;4.730;2023-08-31T08:10:16;16.10;99.90
8856;DHT22;4464;50.882;4.730;2023-08-31T08:12:44;16.10;99.90
8856;DHT22;4464;50.882;4.730;2023-08-31T08:15:13;16.40;99.90
8856;DHT22;4464;50.882;4.730;2023-08-31T08:17:39;16.70;99.90
8856;DHT22;4464;50.882;4.730;2023-08-31T08:20:06;17.10;99.90
8856;DHT22;4464;50.882;4.730;2023-08-31T08:22:35;17.70;99.90
8856;DHT22;4464;50.882;4.730;2023-08-31T08:25:04;18.30;99.90
8856;DHT22;4464;50.882;4.730;2023-08-31T08:27:30;18.80;99.90
8856;DHT22;4464;50.882;4.730;2023-08-31T08:29:59;19.00;99.90
8856;DHT22;4464;50.882;4.730;2023-08-31T08:32:25;19.70;99.90
8856;DHT22;4464;50.882;4.730;2023-08-31T08:34:51;19.90;99.90
8856;DHT22;4464;50.882;4.730;2023-08-31T08:37:21;20.00;99.90
8856;DHT22;4464;50.882;4.730;2023-08-31T08:39:52;19.80;99.90
8856;DHT22;4464;50.882;4.730;2023-08-31T08:42:19;20.70;99.90
8856;DHT22;4464;50.882;4.730;2023-08-31T08:44:50;20.70;99.90
8856;DHT22;4464;50.882;4.730;2023-08-31T08:47:17;21.00;99.90
8856;DHT22;4464;50.882;4.730;2023-08-31T08:49:43;21.10;99.90
8856;DHT22;4464;50.882;4.730;2023-08-31T08:52:10;21.40;99.90
8856;DHT22;4464;50.882;4.730;2023-08-31T08:54:37;21.90;99.90
8856;DHT22;4464;50.882;4.730;2023-08-31T08:57:04;21.80;99.90
8856;DHT22;4464;50.882;4.730;2023-08-31T08:59:32;21.70;99.90
8856;DHT22;4464;50.882;4.730;2023-08-31T09:01:58;22.00;99.90
8856;DHT22;4464;50.882;4.730;2023-08-31T09:04:24;21.70;99.90
8856;DHT22;4464;50.882;4.730;2023-08-31T09:06:53;21.20;99.90
8856;DHT22;4464;50.882;4.730;2023-08-31T09:09:19;21.00;99.90
8856;DHT22;4464;50.882;4.730;2023-08-31T09:11:47;21.80;99.90
8856;DHT22;4464;50.882;4.730;2023-08-31T09:14:17;22.30;99.90
8856;DHT22;4464;50.882;4.730;2023-08-31T09:16:48;22.70;99.90
8856;DHT22;4464;50.882;4.730;2023-08-31T09:19:24;22.70;99.90
8856;DHT22;4464;50.882;4.730;2023-08-31T09:21:52;23.40;99.90
8856;DHT22;4464;50.882;4.730;2023-08-31T09:24:18;23.70;99.90
8856;DHT22;4464;50.882;4.730;2023-08-31T09:26:45;23.30;99.90
8856;DHT22;4464;50.882;4.730;2023-08-31T09:29:14;23.20;99.90
8856;DHT22;4464;50.882;4.730;2023-08-31T09:31:44;23.30;99.90
8856;DHT22;4464;50.882;4.730;2023-08-31T09:34:11;24.00;99.90
8856;DHT22;4464;50.882;4.730;2023-08-31T09:36:37;23.90;99.90
8856;DHT22;4464;50.882;4.730;2023-08-31T09:39:04;23.20;99.90
8856;DHT22;4464;50.882;4.730;2023-08-31T09:41:30;23.20;99.90
8856;DHT22;4464;50.882;4.730;2023-08-31T09:43:56;23.40;99.90
8856;DHT22;4464;50.882;4.730;2023-08-31T09:46:22;23.00;99.90
8856;DHT22;4464;50.882;4.730;2023-08-31T09:48:49;23.00;99.90
8856;DHT22;4464;50.882;4.730;2023-08-31T09:51:18;23.20;99.90
8856;DHT22;4464;50.882;4.730;2023-08-31T09:53:48;23.10;99.90
8856;DHT22;4464;50.882;4.730;2023-08-31T09:56:20;23.60;99.90
8856;DHT22;4464;50.882;4.730;2023-08-31T09:58:46;23.90;99.90
8856;DHT22;4464;50.882;4.730;2023-08-31T10:01:16;23.90;99.90
8856;DHT22;4464;50.882;4.730;2023-08-31T10:03:42;23.70;99.90
8856;DHT22;4464;50.882;4.730;2023-08-31T10:06:09;24.00;99.90
8856;DHT22;4464;50.882;4.730;2023-08-31T10:08:35;24.10;99.90
8856;DHT22;4464;50.882;4.730;2023-08-31T10:11:03;24.50;99.90
8856;DHT22;4464;50.882;4.730;2023-08-31T10:13:34;24.70;99.40
8856;DHT22;4464;50.882;4.730;2023-08-31T10:16:04;24.80;98.70
8856;DHT22;4464;50.882;4.730;2023-08-31T10:18:34;25.50;98.50
8856;DHT22;4464;50.882;4.730;2023-08-31T10:21:02;25.70;98.80
8856;DHT22;4464;50.882;4.730;2023-08-31T10:23:31;26.00;98.50
8856;DHT22;4464;50.882;4.730;2023-08-31T10:28:24;25.90;96.80
8856;DHT22;4464;50.882;4.730;2023-08-31T10:31:16;24.20;97.60
8856;DHT22;4464;50.882;4.730;2023-08-31T10:33:43;23.90;98.90
8856;DHT22;4464;50.882;4.730;2023-08-31T10:36:19;25.10;98.90
8856;DHT22;4464;50.882;4.730;2023-08-31T10:41:18;26.30;98.80
8856;DHT22;4464;50.882;4.730;2023-08-31T10:43:47;25.60;97.20
8856;DHT22;4464;50.882;4.730;2023-08-31T10:54:13;24.30;99.90
8856;DHT22;4464;50.882;4.730;2023-08-31T10:59:24;25.80;96.30
8856;DHT22;4464;50.882;4.730;2023-08-31T11:02:00;26.40;95.90
8856;DHT22;4464;50.882;4.730;2023-08-31T11:04:30;26.50;95.70
8856;DHT22;4464;50.882;4.730;2023-08-31T11:07:18;25.70;95.90
8856;DHT22;4464;50.882;4.730;2023-08-31T11:09:46;24.50;97.10
8856;DHT22;4464;50.882;4.730;2023-08-31T11:12:15;24.70;97.30
8856;DHT22;4464;50.882;4.730;2023-08-31T11:14:43;25.20;96.10
8856;DHT22;4464;50.882;4.730;2023-08-31T11:17:09;26.00;94.70
8856;DHT22;4464;50.882;4.730;2023-08-31T11:19:37;25.30;94.60
8856;DHT22;4464;50.882;4.730;2023-08-31T11:22:06;24.30;95.40
8856;DHT22;4464;50.882;4.730;2023-08-31T11:24:32;22.70;97.40
8856;DHT22;4464;50.882;4.730;2023-08-31T11:26:59;22.20;99.10
8856;DHT22;4464;50.882;4.730;2023-08-31T11:29:25;22.30;99.90
8856;DHT22;4464;50.882;4.730;2023-08-31T11:31:50;24.20;99.20
8856;DHT22;4464;50.882;4.730;2023-08-31T11:34:17;25.30;97.10
8856;DHT22;4464;50.882;4.730;2023-08-31T11:36:46;24.60;96.80
8856;DHT22;4464;50.882;4.730;2023-08-31T11:39:19;23.50;98.00
8856;DHT22;4464;50.882;4.730;2023-08-31T11:41:45;23.50;97.80
8856;DHT22;4464;50.882;4.730;2023-08-31T11:44:13;24.70;97.30
8856;DHT22;4464;50.882;4.730;2023-08-31T11:46:42;26.40;96.00
8856;DHT22;4464;50.882;4.730;2023-08-31T11:49:09;25.90;95.30
8856;DHT22;4464;50.882;4.730;2023-08-31T11:51:36;26.50;95.00
8856;DHT22;4464;50.882;4.730;2023-08-31T11:54:03;26.90;95.30
8856;DHT22;4464;50.882;4.730;2023-08-31T11:56:43;27.20;94.70
8856;DHT22;4464;50.882;4.730;2023-08-31T11:59:10;27.00;93.90
8856;DHT22;4464;50.882;4.730;2023-08-31T12:01:42;25.00;95.40
8856;DHT22;4464;50.882;4.730;2023-08-31T12:04:21;24.30;96.00
8856;DHT22;4464;50.882;4.730;2023-08-31T12:06:51;23.80;96.90
8856;DHT22;4464;50.882;4.730;2023-08-31T12:09:20;23.40;97.50
8856;DHT22;4464;50.882;4.730;2023-08-31T12:11:50;23.00;98.90
8856;DHT22;4464;50.882;4.730;2023-08-31T12:16:45;23.80;98.80
8856;DHT22;4464;50.882;4.730;2023-08-31T12:19:11;24.40;97.40
8856;DHT22;4464;50.882;4.730;2023-08-31T12:21:41;24.60;96.50
8856;DHT22;4464;50.882;4.730;2023-08-31T12:24:09;24.10;96.80
8856;DHT22;4464;50.882;4.730;2023-08-31T12:26:38;23.40;97.60
8856;DHT22;4464;50.882;4.730;2023-08-31T12:29:06;22.70;98.70
8856;DHT22;4464;50.882;4.730;2023-08-31T12:31:37;22.10;99.40
8856;DHT22;4464;50.882;4.730;2023-08-31T12:34:02;21.70;99.40
8856;DHT22;4464;50.882;4.730;2023-08-31T12:36:34;21.50;99.70
8856;DHT22;4464;50.882;4.730;2023-08-31T12:39:04;21.30;99.80
8856;DHT22;4464;50.882;4.730;2023-08-31T12:41:35;21.10;99.90
8856;DHT22;4464;50.882;4.730;2023-08-31T12:44:02;20.70;99.90
8856;DHT22;4464;50.882;4.730;2023-08-31T12:46:29;20.40;99.90
8856;DHT22;4464;50.882;4.730;2023-08-31T12:48:55;20.20;99.90
8856;DHT22;4464;50.882;4.730;2023-08-31T12:51:21;20.20;99.90
8856;DHT22;4464;50.882;4.730;2023-08-31T12:53:47;20.10;99.90
8856;DHT22;4464;50.882;4.730;2023-08-31T12:56:13;20.00;99.90
8856;DHT22;4464;50.882;4.730;2023-08-31T12:58:41;19.90;99.90
8856;DHT22;4464;50.882;4.730;2023-08-31T13:01:07;19.90;99.90
8856;DHT22;4464;50.882;4.730;2023-08-31T13:03:33;20.00;99.90
8856;DHT22;4464;50.882;4.730;2023-08-31T13:06:00;20.10;99.90
8856;DHT22;4464;50.882;4.730;2023-08-31T13:08:27;20.20;99.90
8856;DHT22;4464;50.882;4.730;2023-08-31T13:10:53;20.50;99.90
8856;DHT22;4464;50.882;4.730;2023-08-31T13:13:20;21.00;99.90
8856;DHT22;4464;50.882;4.730;2023-08-31T13:15:46;21.10;99.90
8856;DHT22;4464;50.882;4.730;2023-08-31T13:18:12;21.20;99.90
8856;DHT22;4464;50.882;4.730;2023-08-31T13:20:38;21.10;99.90
8856;DHT22;4464;50.882;4.730;2023-08-31T13:23:04;21.00;99.90
8856;DHT22;4464;50.882;4.730;2023-08-31T13:25:31;21.20;99.90
8856;DHT22;4464;50.882;4.730;2023-08-31T13:28:01;21.70;99.80
8856;DHT22;4464;50.882;4.730;2023-08-31T13:30:31;22.00;98.70
8856;DHT22;4464;50.882;4.730;2023-08-31T13:32:59;22.50;98.80
8856;DHT22;4464;50.882;4.730;2023-08-31T13:35:25;23.10;98.10
8856;DHT22;4464;50.882;4.730;2023-08-31T13:37:51;23.60;97.70
8856;DHT22;4464;50.882;4.730;2023-08-31T13:40:18;23.80;96.50
8856;DHT22;4464;50.882;4.730;2023-08-31T13:42:58;24.30;96.60
8856;DHT22;4464;50.882;4.730;2023-08-31T13:45:31;24.50;96.20
8856;DHT22;4464;50.882;4.730;2023-08-31T13:48:00;24.30;95.40
8856;DHT22;4464;50.882;4.730;2023-08-31T13:50:32;23.90;96.00
8856;DHT22;4464;50.882;4.730;2023-08-31T13:53:00;24.40;95.90
8856;DHT22;4464;50.882;4.730;2023-08-31T13:55:30;24.20;94.60
8856;DHT22;4464;50.882;4.730;2023-08-31T13:58:07;24.00;94.40
8856;DHT22;4464;50.882;4.730;2023-08-31T14:00:36;23.40;94.90
8856;DHT22;4464;50.882;4.730;2023-08-31T14:03:04;22.90;95.80
8856;DHT22;4464;50.882;4.730;2023-08-31T14:05:32;22.70;95.90
8856;DHT22;4464;50.882;4.730;2023-08-31T14:08:01;23.10;95.30
8856;DHT22;4464;50.882;4.730;2023-08-31T14:10:29;23.40;96.40
8856;DHT22;4464;50.882;4.730;2023-08-31T14:12:57;23.70;94.90
8856;DHT22;4464;50.882;4.730;2023-08-31T14:15:23;23.70;95.00
8856;DHT22;4464;50.882;4.730;2023-08-31T14:17:52;23.10;95.60
8856;DHT22;4464;50.882;4.730;2023-08-31T14:20:22;23.10;95.70
8856;DHT22;4464;50.882;4.730;2023-08-31T14:22:48;22.80;96.20
8856;DHT22;4464;50.882;4.730;2023-08-31T14:25:14;23.00;96.60
8856;DHT22;4464;50.882;4.730;2023-08-31T14:27:43;23.10;96.20
8856;DHT22;4464;50.882;4.730;2023-08-31T14:30:09;23.20;95.90
8856;DHT22;4464;50.882;4.730;2023-08-31T14:32:35;23.10;96.10
8856;DHT22;4464;50.882;4.730;2023-08-31T14:35:05;23.00;95.90
8856;DHT22;4464;50.882;4.730;2023-08-31T14:37:34;22.80;96.40
8856;DHT22;4464;50.882;4.730;2023-08-31T14:40:00;22.60;96.70
8856;DHT22;4464;50.882;4.730;2023-08-31T14:42:25;22.90;96.60
8856;DHT22;4464;50.882;4.730;2023-08-31T14:44:51;22.80;96.90
8856;DHT22;4464;50.882;4.730;2023-08-31T14:47:17;23.20;97.10
8856;DHT22;4464;50.882;4.730;2023-08-31T14:49:43;23.10;96.80
8856;DHT22;4464;50.882;4.730;2023-08-31T14:52:08;22.80;96.90
8856;DHT22;4464;50.882;4.730;2023-08-31T14:54:39;22.30;97.40
8856;DHT22;4464;50.882;4.730;2023-08-31T14:57:04;21.70;98.10
8856;DHT22;4464;50.882;4.730;2023-08-31T14:59:31;21.40;98.60
8856;DHT22;4464;50.882;4.730;2023-08-31T15:01:57;21.20;99.00
8856;DHT22;4464;50.882;4.730;2023-08-31T15:04:25;21.30;99.40
8856;DHT22;4464;50.882;4.730;2023-08-31T15:06:54;21.10;99.30
8856;DHT22;4464;50.882;4.730;2023-08-31T15:09:19;20.90;99.60
8856;DHT22;4464;50.882;4.730;2023-08-31T15:11:45;20.90;99.70
8856;DHT22;4464;50.882;4.730;2023-08-31T15:14:11;21.10;99.70
8856;DHT22;4464;50.882;4.730;2023-08-31T15:16:39;21.40;99.70
8856;DHT22;4464;50.882;4.730;2023-08-31T15:19:06;21.50;99.20
8856;DHT22;4464;50.882;4.730;2023-08-31T15:21:37;21.20;98.60
8856;DHT22;4464;50.882;4.730;2023-08-31T15:24:03;21.10;99.30
8856;DHT22;4464;50.882;4.730;2023-08-31T15:26:29;21.00;99.40
8856;DHT22;4464;50.882;4.730;2023-08-31T15:28:57;20.70;99.20
8856;DHT22;4464;50.882;4.730;2023-08-31T15:31:23;20.50;99.60
8856;DHT22;4464;50.882;4.730;2023-08-31T15:33:49;20.60;99.90
8856;DHT22;4464;50.882;4.730;2023-08-31T15:36:17;20.50;99.70
8856;DHT22;4464;50.882;4.730;2023-08-31T15:38:43;20.60;99.90
8856;DHT22;4464;50.882;4.730;2023-08-31T15:41:09;20.70;99.90
8856;DHT22;4464;50.882;4.730;2023-08-31T15:43:35;20.70;99.90
8856;DHT22;4464;50.882;4.730;2023-08-31T15:46:05;20.50;99.90
8856;DHT22;4464;50.882;4.730;2023-08-31T15:48:31;20.30;99.90
8856;DHT22;4464;50.882;4.730;2023-08-31T15:50:57;20.20;99.90
8856;DHT22;4464;50.882;4.730;2023-08-31T15:53:24;20.10;99.90
8856;DHT22;4464;50.882;4.730;2023-08-31T15:55:51;20.10;99.90
8856;DHT22;4464;50.882;4.730;2023-08-31T15:58:17;20.10;99.90
8856;DHT22;4464;50.882;4.730;2023-08-31T16:00:46;19.90;99.90
8856;DHT22;4464;50.882;4.730;2023-08-31T16:03:12;19.50;99.90
8856;DHT22;4464;50.882;4.730;2023-08-31T16:05:40;19.50;99.90
8856;DHT22;4464;50.882;4.730;2023-08-31T16:08:08;19.50;99.90
8856;DHT22;4464;50.882;4.730;2023-08-31T16:10:33;19.30;99.90
8856;DHT22;4464;50.882;4.730;2023-08-31T16:12:59;19.40;99.90
8856;DHT22;4464;50.882;4.730;2023-08-31T16:15:27;19.40;99.90
8856;DHT22;4464;50.882;4.730;2023-08-31T16:17:53;19.40;99.90
8856;DHT22;4464;50.882;4.730;2023-08-31T16:20:22;19.40;99.90
8856;DHT22;4464;50.882;4.730;2023-08-31T16:22:52;19.20;99.90
8856;DHT22;4464;50.882;4.730;2023-08-31T16:25:18;19.20;99.90
8856;DHT22;4464;50.882;4.730;2023-08-31T16:27:50;19.20;99.90
8856;DHT22;4464;50.882;4.730;2023-08-31T16:30:15;19.20;99.90